sensor_id;sensor_type;location;lat;lon;timestamp;temperature;humidity
1277;DHT22;631;51.024;13.826;2022-08-11T00:00:06;16.80;99.90
1277;DHT22;631;51.024;13.826;2022-08-11T00:02:47;16.80;99.90
1277;DHT22;631;51.024;13.826;2022-08-11T00:05:17;16.80;99.90
1277;DHT22;631;51.024;13.826;2022-08-11T00:07:48;16.70;99.90
1277;DHT22;631;51.024;13.826;2022-08-11T00:10:17;16.70;99.90
1277;DHT22;631;51.024;13.826;2022-08-11T00:12:51;16.60;99.90
1277;DHT22;631;51.024;13.826;2022-08-11T00:15:17;16.60;99.90
1277;DHT22;631;51.024;13.826;2022-08-11T00:17:43;16.50;99.90
1277;DHT22;631;51.024;13.826;2022-08-11T00:20:12;16.50;99.90
1277;DHT22;631;51.024;13.826;2022-08-11T00:22:41;16.50;99.90
1277;DHT22;631;51.024;13.826;2022-08-11T00:25:16;16.50;99.90
1277;DHT22;631;51.024;13.826;2022-08-11T00:27:43;16.40;99.90
1277;DHT22;631;51.024;13.826;2022-08-11T00:30:10;16.40;99.90
1277;DHT22;631;51.024;13.826;2022-08-11T00:32:38;16.40;99.90
1277;DHT22;631;51.024;13.826;2022-08-11T00:35:07;16.30;99.90
1277;DHT22;631;51.024;13.826;2022-08-11T00:37:36;16.30;99.90
1277;DHT22;631;51.024;13.826;2022-08-11T00:40:04;16.30;99.90
1277;DHT22;631;51.024;13.826;2022-08-11T00:43:00;16.20;99.90
1277;DHT22;631;51.024;13.826;2022-08-11T00:45:40;16.20;99.90
1277;DHT22;631;51.024;13.826;2022-08-11T00:48:25;16.10;99.90
1277;DHT22;631;51.024;13.826;2022-08-11T01:02:44;16.00;99.90
1277;DHT22;631;51.024;13.826;2022-08-11T01:05:36;15.90;99.90
1277;DHT22;631;51.024;13.826;2022-08-11T01:11:28;15.80;99.90
1277;DHT22;631;51.024;13.826;2022-08-11T01:28:52;15.60;99.90
1277;DHT22;631;51.024;13.826;2022-08-11T01:31:46;15.60;99.90
1277;DHT22;631;51.024;13.826;2022-08-11T01:48:42;15.30;99.90
1277;DHT22;631;51.024;13.826;2022-08-11T01:51:43;15.30;99.90
1277;DHT22;631;51.024;13.826;2022-08-11T01:59:45;15.30;99.90
1277;DHT22;631;51.024;13.826;2022-08-11T02:02:40;15.30;99.90
1277;DHT22;631;51.024;13.826;2022-08-11T02:10:45;15.20;99.90
1277;DHT22;631;51.024;13.826;2022-08-11T02:13:59;15.20;99.90
1277;DHT22;631;51.024;13.826;2022-08-11T02:22:31;15.10;99.90
1277;DHT22;631;51.024;13.826;2022-08-11T02:28:20;15.10;99.90
1277;DHT22;631;51.024;13.826;2022-08-11T02:34:18;15.00;99.90
1277;DHT22;631;51.024;13.826;2022-08-11T02:37:13;15.00;99.90
1277;DHT22;631;51.024;13.826;2022-08-11T02:53:50;14.80;99.90
1277;DHT22;631;51.024;13.826;2022-08-11T02:56:27;14.70;99.90
1277;DHT22;631;51.024;13.826;2022-08-11T02:59:52;14.70;99.90
1277;DHT22;631;51.024;13.826;2022-08-11T03:14:02;14.50;99.90
1277;DHT22;631;51.024;13.826;2022-08-11T03:22:50;14.40;99.90
1277;DHT22;631;51.024;13.826;2022-08-11T03:28:59;14.40;99.90
1277;DHT22;631;51.024;13.826;2022-08-11T03:31:31;14.40;99.90
1277;DHT22;631;51.024;13.826;2022-08-11T03:34:28;14.40;99.90
1277;DHT22;631;51.024;13.826;2022-08-11T03:52:26;14.30;99.90
1277;DHT22;631;51.024;13.826;2022-08-11T03:55:32;14.20;99.90
1277;DHT22;631;51.024;13.826;2022-08-11T03:58:57;14.20;99.90
1277;DHT22;631;51.024;13.826;2022-08-11T04:01:24;14.20;99.90
1277;DHT22;631;51.024;13.826;2022-08-11T04:27:00;14.20;99.90
1277;DHT22;631;51.024;13.826;2022-08-11T04:32:31;14.30;99.90
1277;DHT22;631;51.024;13.826;2022-08-11T04:48:58;14.20;99.90
1277;DHT22;631;51.024;13.826;2022-08-11T05:07:46;14.30;99.90
1277;DHT22;631;51.024;13.826;2022-08-11T05:10:42;14.40;99.90
1277;DHT22;631;51.024;13.826;2022-08-11T05:13:26;14.40;99.90
1277;DHT22;631;51.024;13.826;2022-08-11T05:16:14;14.40;99.90
1277;DHT22;631;51.024;13.826;2022-08-11T05:19:02;14.50;99.90
1277;DHT22;631;51.024;13.826;2022-08-11T05:21:54;14.60;99.90
1277;DHT22;631;51.024;13.826;2022-08-11T05:24:45;14.60;99.90
1277;DHT22;631;51.024;13.826;2022-08-11T05:27:49;14.70;99.90
1277;DHT22;631;51.024;13.826;2022-08-11T05:30:35;14.80;99.90
1277;DHT22;631;51.024;13.826;2022-08-11T05:33:53;14.90;99.90
1277;DHT22;631;51.024;13.826;2022-08-11T05:36:52;15.10;99.90
1277;DHT22;631;51.024;13.826;2022-08-11T05:39:25;15.20;99.90
1277;DHT22;631;51.024;13.826;2022-08-11T05:42:11;15.30;99.90
1277;DHT22;631;51.024;13.826;2022-08-11T05:45:25;15.40;99.90
1277;DHT22;631;51.024;13.826;2022-08-11T05:48:10;15.50;99.90
1277;DHT22;631;51.024;13.826;2022-08-11T05:51:00;15.70;99.90
1277;DHT22;631;51.024;13.826;2022-08-11T05:53:53;15.80;99.90
1277;DHT22;631;51.024;13.826;2022-08-11T05:56:53;15.90;99.90
1277;DHT22;631;51.024;13.826;2022-08-11T05:59:22;16.00;99.90
1277;DHT22;631;51.024;13.826;2022-08-11T06:01:49;16.20;99.90
1277;DHT22;631;51.024;13.826;2022-08-11T06:04:22;16.20;99.90
1277;DHT22;631;51.024;13.826;2022-08-11T06:06:58;16.40;99.90
1277;DHT22;631;51.024;13.826;2022-08-11T06:09:48;16.50;99.90
1277;DHT22;631;51.024;13.826;2022-08-11T06:12:27;16.60;99.90
1277;DHT22;631;51.024;13.826;2022-08-11T06:15:00;16.70;99.90
1277;DHT22;631;51.024;13.826;2022-08-11T06:17:28;16.80;99.90
1277;DHT22;631;51.024;13.826;2022-08-11T06:19:59;16.90;99.90
1277;DHT22;631;51.024;13.826;2022-08-11T06:22:26;17.10;99.90
1277;DHT22;631;51.024;13.826;2022-08-11T06:24:55;17.20;99.90
1277;DHT22;631;51.024;13.826;2022-08-11T06:27:24;17.30;99.90
1277;DHT22;631;51.024;13.826;2022-08-11T06:29:53;17.40;99.90
1277;DHT22;631;51.024;13.826;2022-08-11T06:32:23;17.50;99.90
1277;DHT22;631;51.024;13.826;2022-08-11T06:35:00;17.70;99.90
1277;DHT22;631;51.024;13.826;2022-08-11T06:37:43;17.80;99.90
1277;DHT22;631;51.024;13.826;2022-08-11T06:40:40;17.90;99.90
1277;DHT22;631;51.024;13.826;2022-08-11T06:43:20;18.00;99.90
1277;DHT22;631;51.024;13.826;2022-08-11T06:45:50;18.10;99.90
1277;DHT22;631;51.024;13.826;2022-08-11T06:48:20;18.20;99.60
1277;DHT22;631;51.024;13.826;2022-08-11T06:50:51;18.30;99.40
1277;DHT22;631;51.024;13.826;2022-08-11T06:53:43;18.40;99.40
1277;DHT22;631;51.024;13.826;2022-08-11T06:56:11;18.50;99.00
1277;DHT22;631;51.024;13.826;2022-08-11T06:58:58;18.60;98.70
1277;DHT22;631;51.024;13.826;2022-08-11T07:07:52;19.00;96.90
1277;DHT22;631;51.024;13.826;2022-08-11T07:13:26;19.30;96.20
1277;DHT22;631;51.024;13.826;2022-08-11T07:16:17;19.50;96.40
1277;DHT22;631;51.024;13.826;2022-08-11T07:18:46;19.70;96.00
1277;DHT22;631;51.024;13.826;2022-08-11T07:21:34;19.80;95.90
1277;DHT22;631;51.024;13.826;2022-08-11T07:24:23;20.00;95.00
1277;DHT22;631;51.024;13.826;2022-08-11T07:27:12;20.30;94.00
1277;DHT22;631;51.024;13.826;2022-08-11T07:29:57;20.50;93.10
1277;DHT22;631;51.024;13.826;2022-08-11T07:32:30;20.70;92.60
1277;DHT22;631;51.024;13.826;2022-08-11T07:35:08;20.80;92.10
1277;DHT22;631;51.024;13.826;2022-08-11T07:37:41;21.00;91.90
1277;DHT22;631;51.024;13.826;2022-08-11T07:40:08;21.20;91.00
1277;DHT22;631;51.024;13.826;2022-08-11T07:42:36;21.50;90.30
1277;DHT22;631;51.024;13.826;2022-08-11T07:45:04;21.70;88.20
1277;DHT22;631;51.024;13.826;2022-08-11T07:47:50;21.90;86.30
1277;DHT22;631;51.024;13.826;2022-08-11T07:50:39;22.10;84.30
1277;DHT22;631;51.024;13.826;2022-08-11T07:53:24;22.30;82.30
1277;DHT22;631;51.024;13.826;2022-08-11T07:55:52;22.40;80.20
1277;DHT22;631;51.024;13.826;2022-08-11T07:58:22;22.50;78.70
1277;DHT22;631;51.024;13.826;2022-08-11T08:01:06;22.70;76.60
1277;DHT22;631;51.024;13.826;2022-08-11T08:03:51;22.90;75.30
1277;DHT22;631;51.024;13.826;2022-08-11T08:06:38;23.00;73.70
1277;DHT22;631;51.024;13.826;2022-08-11T08:09:23;23.30;70.80
1277;DHT22;631;51.024;13.826;2022-08-11T08:12:08;23.50;70.50
1277;DHT22;631;51.024;13.826;2022-08-11T08:14:54;23.80;67.60
1277;DHT22;631;51.024;13.826;2022-08-11T08:17:41;24.10;64.10
1277;DHT22;631;51.024;13.826;2022-08-11T08:20:19;24.20;62.00
1277;DHT22;631;51.024;13.826;2022-08-11T08:22:53;24.30;60.80
1277;DHT22;631;51.024;13.826;2022-08-11T08:25:29;24.60;60.40
1277;DHT22;631;51.024;13.826;2022-08-11T08:27:56;24.80;59.30
1277;DHT22;631;51.024;13.826;2022-08-11T08:30:24;24.90;56.70
1277;DHT22;631;51.024;13.826;2022-08-11T08:33:11;25.10;56.20
1277;DHT22;631;51.024;13.826;2022-08-11T08:35:38;25.30;55.10
1277;DHT22;631;51.024;13.826;2022-08-11T08:38:05;25.50;54.40
1277;DHT22;631;51.024;13.826;2022-08-11T08:40:31;25.70;54.30
1277;DHT22;631;51.024;13.826;2022-08-11T08:43:02;25.90;54.00
1277;DHT22;631;51.024;13.826;2022-08-11T08:45:33;26.20;53.30
1277;DHT22;631;51.024;13.826;2022-08-11T08:48:03;26.40;49.40
1277;DHT22;631;51.024;13.826;2022-08-11T08:50:33;26.60;47.70
1277;DHT22;631;51.024;13.826;2022-08-11T08:53:22;26.80;45.40
1277;DHT22;631;51.024;13.826;2022-08-11T08:55:49;26.90;45.50
1277;DHT22;631;51.024;13.826;2022-08-11T08:58:22;27.00;45.10
1277;DHT22;631;51.024;13.826;2022-08-11T09:00:51;27.10;43.80
1277;DHT22;631;51.024;13.826;2022-08-11T09:03:19;27.40;43.50
1277;DHT22;631;51.024;13.826;2022-08-11T09:05:46;27.50;42.20
1277;DHT22;631;51.024;13.826;2022-08-11T09:08:16;27.80;41.50
1277;DHT22;631;51.024;13.826;2022-08-11T09:10:45;28.00;40.30
1277;DHT22;631;51.024;13.826;2022-08-11T09:13:11;28.20;38.70
1277;DHT22;631;51.024;13.826;2022-08-11T09:15:39;28.50;38.40
1277;DHT22;631;51.024;13.826;2022-08-11T09:18:05;28.80;36.50
1277;DHT22;631;51.024;13.826;2022-08-11T09:20:35;28.90;35.80
1277;DHT22;631;51.024;13.826;2022-08-11T09:23:06;29.00;35.00
1277;DHT22;631;51.024;13.826;2022-08-11T09:25:56;29.20;34.20
1277;DHT22;631;51.024;13.826;2022-08-11T09:28:43;29.40;33.60
1277;DHT22;631;51.024;13.826;2022-08-11T09:31:10;29.60;33.40
1277;DHT22;631;51.024;13.826;2022-08-11T09:33:37;29.70;32.30
1277;DHT22;631;51.024;13.826;2022-08-11T09:36:04;29.70;32.20
1277;DHT22;631;51.024;13.826;2022-08-11T09:38:51;29.90;31.00
1277;DHT22;631;51.024;13.826;2022-08-11T09:41:36;29.90;31.50
1277;DHT22;631;51.024;13.826;2022-08-11T09:44:04;30.00;31.80
1277;DHT22;631;51.024;13.826;2022-08-11T09:46:49;30.10;30.30
1277;DHT22;631;51.024;13.826;2022-08-11T09:49:19;30.10;30.60
1277;DHT22;631;51.024;13.826;2022-08-11T09:51:47;30.00;30.80
1277;DHT22;631;51.024;13.826;2022-08-11T09:54:14;30.00;30.80
1277;DHT22;631;51.024;13.826;2022-08-11T09:56:41;30.00;30.50
1277;DHT22;631;51.024;13.826;2022-08-11T09:59:25;29.90;30.80
1277;DHT22;631;51.024;13.826;2022-08-11T10:01:57;29.80;30.40
1277;DHT22;631;51.024;13.826;2022-08-11T10:04:34;29.50;30.90
1277;DHT22;631;51.024;13.826;2022-08-11T10:07:03;29.50;30.60
1277;DHT22;631;51.024;13.826;2022-08-11T10:09:36;29.40;30.30
1277;DHT22;631;51.024;13.826;2022-08-11T10:12:05;29.30;30.50
1277;DHT22;631;51.024;13.826;2022-08-11T10:14:33;29.40;30.80
1277;DHT22;631;51.024;13.826;2022-08-11T10:17:19;29.60;29.60
1277;DHT22;631;51.024;13.826;2022-08-11T10:19:49;29.60;29.40
1277;DHT22;631;51.024;13.826;2022-08-11T10:22:17;29.70;29.70
1277;DHT22;631;51.024;13.826;2022-08-11T10:25:01;29.80;29.20
1277;DHT22;631;51.024;13.826;2022-08-11T10:27:47;30.00;29.40
1277;DHT22;631;51.024;13.826;2022-08-11T10:30:26;30.20;29.00
1277;DHT22;631;51.024;13.826;2022-08-11T10:33:12;30.30;27.70
1277;DHT22;631;51.024;13.826;2022-08-11T10:35:57;30.40;27.50
1277;DHT22;631;51.024;13.826;2022-08-11T10:38:24;30.60;26.80
1277;DHT22;631;51.024;13.826;2022-08-11T10:40:51;30.80;27.00
1277;DHT22;631;51.024;13.826;2022-08-11T10:43:38;31.10;26.50
1277;DHT22;631;51.024;13.826;2022-08-11T10:46:08;31.20;26.20
1277;DHT22;631;51.024;13.826;2022-08-11T10:48:55;31.50;25.30
1277;DHT22;631;51.024;13.826;2022-08-11T10:51:23;31.50;24.10
1277;DHT22;631;51.024;13.826;2022-08-11T10:54:07;31.60;23.80
1277;DHT22;631;51.024;13.826;2022-08-11T10:56:53;31.50;23.50
1277;DHT22;631;51.024;13.826;2022-08-11T10:59:37;31.60;24.20
1277;DHT22;631;51.024;13.826;2022-08-11T11:02:03;31.80;24.50
1277;DHT22;631;51.024;13.826;2022-08-11T11:07:07;31.70;22.50
1277;DHT22;631;51.024;13.826;2022-08-11T11:09:50;31.50;22.90
1277;DHT22;631;51.024;13.826;2022-08-11T11:12:44;31.40;23.10
1277;DHT22;631;51.024;13.826;2022-08-11T11:15:33;31.30;22.00
1277;DHT22;631;51.024;13.826;2022-08-11T11:20:50;31.60;22.70
1277;DHT22;631;51.024;13.826;2022-08-11T11:23:24;32.00;22.60
1277;DHT22;631;51.024;13.826;2022-08-11T11:25:54;32.20;20.80
1277;DHT22;631;51.024;13.826;2022-08-11T11:31:58;32.30;59.00
1277;DHT22;631;51.024;13.826;2022-08-11T11:34:47;32.60;59.80
1277;DHT22;631;51.024;13.826;2022-08-11T11:37:16;32.60;58.30
1277;DHT22;631;51.024;13.826;2022-08-11T11:39:43;32.70;54.70
1277;DHT22;631;51.024;13.826;2022-08-11T11:42:10;32.80;54.70
1277;DHT22;631;51.024;13.826;2022-08-11T11:44:43;33.00;53.50
1277;DHT22;631;51.024;13.826;2022-08-11T11:47:11;33.00;50.70
1277;DHT22;631;51.024;13.826;2022-08-11T11:49:37;33.10;49.60
1277;DHT22;631;51.024;13.826;2022-08-11T11:52:06;33.30;48.50
1277;DHT22;631;51.024;13.826;2022-08-11T11:54:33;33.30;48.00
1277;DHT22;631;51.024;13.826;2022-08-11T11:57:01;33.50;48.70
1277;DHT22;631;51.024;13.826;2022-08-11T11:59:49;33.60;47.80
1277;DHT22;631;51.024;13.826;2022-08-11T12:02:35;33.50;46.60
1277;DHT22;631;51.024;13.826;2022-08-11T12:05:01;33.70;45.00
1277;DHT22;631;51.024;13.826;2022-08-11T12:07:28;33.80;45.50
1277;DHT22;631;51.024;13.826;2022-08-11T12:10:14;34.00;45.30
1277;DHT22;631;51.024;13.826;2022-08-11T12:12:40;34.20;44.00
1277;DHT22;631;51.024;13.826;2022-08-11T12:15:24;34.20;43.20
1277;DHT22;631;51.024;13.826;2022-08-11T12:17:50;34.40;42.60
1277;DHT22;631;51.024;13.826;2022-08-11T12:20:16;34.50;42.20
1277;DHT22;631;51.024;13.826;2022-08-11T12:22:46;34.70;40.80
1277;DHT22;631;51.024;13.826;2022-08-11T12:25:31;34.90;39.50
1277;DHT22;631;51.024;13.826;2022-08-11T12:28:15;35.50;37.70
1277;DHT22;631;51.024;13.826;2022-08-11T12:30:42;35.50;36.70
1277;DHT22;631;51.024;13.826;2022-08-11T12:33:12;35.20;37.10
1277;DHT22;631;51.024;13.826;2022-08-11T12:35:38;35.20;36.40
1277;DHT22;631;51.024;13.826;2022-08-11T12:38:05;35.40;36.80
1277;DHT22;631;51.024;13.826;2022-08-11T12:40:32;35.70;35.40
1277;DHT22;631;51.024;13.826;2022-08-11T12:43:19;36.00;34.20
1277;DHT22;631;51.024;13.826;2022-08-11T12:46:06;36.10;33.80
1277;DHT22;631;51.024;13.826;2022-08-11T12:48:35;36.40;32.80
1277;DHT22;631;51.024;13.826;2022-08-11T12:51:22;36.60;32.00
1277;DHT22;631;51.024;13.826;2022-08-11T12:55:08;36.50;31.50
1277;DHT22;631;51.024;13.826;2022-08-11T12:57:16;36.80;30.00
1277;DHT22;631;51.024;13.826;2022-08-11T13:00:03;37.00;28.70
1277;DHT22;631;51.024;13.826;2022-08-11T13:02:47;36.80;28.60
1277;DHT22;631;51.024;13.826;2022-08-11T13:05:32;36.80;28.00
1277;DHT22;631;51.024;13.826;2022-08-11T13:08:02;37.00;27.30
1277;DHT22;631;51.024;13.826;2022-08-11T13:10:30;37.20;27.20
1277;DHT22;631;51.024;13.826;2022-08-11T13:13:17;37.40;27.40
1277;DHT22;631;51.024;13.826;2022-08-11T13:15:46;37.80;26.50
1277;DHT22;631;51.024;13.826;2022-08-11T13:18:15;37.70;25.70
1277;DHT22;631;51.024;13.826;2022-08-11T15:21:02;39.60;8.00
1277;DHT22;631;51.024;13.826;2022-08-11T15:23:47;39.30;7.40
1277;DHT22;631;51.024;13.826;2022-08-11T15:26:35;39.10;18.00
1277;DHT22;631;51.024;13.826;2022-08-11T15:29:24;38.70;7.60
1277;DHT22;631;51.024;13.826;2022-08-11T15:32:11;38.50;8.00
1277;DHT22;631;51.024;13.826;2022-08-11T15:34:49;38.50;8.30
1277;DHT22;631;51.024;13.826;2022-08-11T15:37:36;38.00;8.80
1277;DHT22;631;51.024;13.826;2022-08-11T15:46:31;37.70;9.30
1277;DHT22;631;51.024;13.826;2022-08-11T15:49:11;37.90;8.30
1277;DHT22;631;51.024;13.826;2022-08-11T15:51:44;37.70;9.00
1277;DHT22;631;51.024;13.826;2022-08-11T15:54:15;37.30;8.70
1277;DHT22;631;51.024;13.826;2022-08-11T15:56:44;37.30;9.40
1277;DHT22;631;51.024;13.826;2022-08-11T15:59:13;37.20;9.10
1277;DHT22;631;51.024;13.826;2022-08-11T16:01:58;37.10;9.30
1277;DHT22;631;51.024;13.826;2022-08-11T16:04:45;37.00;9.00
1277;DHT22;631;51.024;13.826;2022-08-11T16:07:14;37.10;9.10
1277;DHT22;631;51.024;13.826;2022-08-11T16:12:22;37.00;9.00
1277;DHT22;631;51.024;13.826;2022-08-11T16:14:51;36.90;8.90
1277;DHT22;631;51.024;13.826;2022-08-11T16:17:41;36.80;8.90
1277;DHT22;631;51.024;13.826;2022-08-11T16:20:09;36.60;8.80
1277;DHT22;631;51.024;13.826;2022-08-11T16:22:38;36.50;8.90
1277;DHT22;631;51.024;13.826;2022-08-11T16:25:10;36.40;9.70
1277;DHT22;631;51.024;13.826;2022-08-11T16:27:42;36.40;9.40
1277;DHT22;631;51.024;13.826;2022-08-11T16:30:10;36.30;9.20
1277;DHT22;631;51.024;13.826;2022-08-11T16:32:39;36.20;9.80
1277;DHT22;631;51.024;13.826;2022-08-11T16:35:10;36.10;9.50
1277;DHT22;631;51.024;13.826;2022-08-11T16:37:56;36.00;10.10
1277;DHT22;631;51.024;13.826;2022-08-11T16:40:41;35.90;10.60
1277;DHT22;631;51.024;13.826;2022-08-11T16:43:12;35.60;10.80
1277;DHT22;631;51.024;13.826;2022-08-11T16:46:17;35.60;10.30
1277;DHT22;631;51.024;13.826;2022-08-11T16:49:12;35.60;10.60
1277;DHT22;631;51.024;13.826;2022-08-11T16:51:38;35.20;10.60
1277;DHT22;631;51.024;13.826;2022-08-11T16:54:03;35.10;11.30
1277;DHT22;631;51.024;13.826;2022-08-11T16:56:42;35.00;10.70
1277;DHT22;631;51.024;13.826;2022-08-11T16:59:16;34.80;11.30
1277;DHT22;631;51.024;13.826;2022-08-11T17:01:46;34.60;11.10
1277;DHT22;631;51.024;13.826;2022-08-11T17:07:21;34.40;12.00
1277;DHT22;631;51.024;13.826;2022-08-11T17:10:16;34.30;12.20
1277;DHT22;631;51.024;13.826;2022-08-11T17:13:01;34.10;12.30
1277;DHT22;631;51.024;13.826;2022-08-11T17:15:41;33.70;12.50
1277;DHT22;631;51.024;13.826;2022-08-11T17:18:28;33.20;13.30
1277;DHT22;631;51.024;13.826;2022-08-11T17:21:37;33.00;13.50
1277;DHT22;631;51.024;13.826;2022-08-11T17:24:26;32.80;14.30
1277;DHT22;631;51.024;13.826;2022-08-11T17:26:53;32.50;14.60
1277;DHT22;631;51.024;13.826;2022-08-11T17:29:49;32.20;13.60
1277;DHT22;631;51.024;13.826;2022-08-11T17:32:19;31.70;14.70
1277;DHT22;631;51.024;13.826;2022-08-11T17:35:17;31.20;15.50
1277;DHT22;631;51.024;13.826;2022-08-11T17:40:25;30.50;16.70
1277;DHT22;631;51.024;13.826;2022-08-11T17:42:56;30.00;17.40
1277;DHT22;631;51.024;13.826;2022-08-11T17:45:43;29.80;17.60
1277;DHT22;631;51.024;13.826;2022-08-11T17:48:31;29.50;18.40
1277;DHT22;631;51.024;13.826;2022-08-11T17:51:10;29.20;18.70
1277;DHT22;631;51.024;13.826;2022-08-11T17:53:40;28.70;19.60
1277;DHT22;631;51.024;13.826;2022-08-11T17:56:26;28.40;21.20
1277;DHT22;631;51.024;13.826;2022-08-11T17:59:14;28.10;21.40
1277;DHT22;631;51.024;13.826;2022-08-11T18:02:01;27.80;22.00
1277;DHT22;631;51.024;13.826;2022-08-11T18:04:49;27.60;21.80
1277;DHT22;631;51.024;13.826;2022-08-11T18:07:17;27.30;23.00
1277;DHT22;631;51.024;13.826;2022-08-11T18:10:06;27.10;24.20
1277;DHT22;631;51.024;13.826;2022-08-11T18:12:52;26.90;24.40
1277;DHT22;631;51.024;13.826;2022-08-11T18:15:40;26.70;24.00
1277;DHT22;631;51.024;13.826;2022-08-11T18:18:25;26.50;24.90
1277;DHT22;631;51.024;13.826;2022-08-11T18:21:12;26.30;24.50
1277;DHT22;631;51.024;13.826;2022-08-11T18:24:02;26.10;25.00
1277;DHT22;631;51.024;13.826;2022-08-11T18:26:47;25.90;26.50
1277;DHT22;631;51.024;13.826;2022-08-11T18:29:35;25.70;26.70
1277;DHT22;631;51.024;13.826;2022-08-11T18:32:23;25.50;27.70
1277;DHT22;631;51.024;13.826;2022-08-11T18:35:09;25.40;28.30
1277;DHT22;631;51.024;13.826;2022-08-11T18:37:56;25.20;28.20
1277;DHT22;631;51.024;13.826;2022-08-11T18:40:42;25.00;28.70
1277;DHT22;631;51.024;13.826;2022-08-11T18:43:28;24.90;29.30
1277;DHT22;631;51.024;13.826;2022-08-11T18:46:15;24.80;29.80
1277;DHT22;631;51.024;13.826;2022-08-11T18:49:25;24.60;30.50
1277;DHT22;631;51.024;13.826;2022-08-11T18:52:12;24.40;30.80
1277;DHT22;631;51.024;13.826;2022-08-11T18:54:59;24.30;32.80
1277;DHT22;631;51.024;13.826;2022-08-11T18:57:46;24.20;33.20
1277;DHT22;631;51.024;13.826;2022-08-11T19:00:32;24.10;33.50
1277;DHT22;631;51.024;13.826;2022-08-11T19:03:18;24.00;34.30
1277;DHT22;631;51.024;13.826;2022-08-11T19:06:05;23.80;35.00
1277;DHT22;631;51.024;13.826;2022-08-11T19:08:53;23.70;35.40
1277;DHT22;631;51.024;13.826;2022-08-11T19:11:40;23.60;37.50
1277;DHT22;631;51.024;13.826;2022-08-11T19:14:25;23.40;38.00
1277;DHT22;631;51.024;13.826;2022-08-11T19:17:11;23.30;38.90
1277;DHT22;631;51.024;13.826;2022-08-11T19:19:56;23.10;40.10
1277;DHT22;631;51.024;13.826;2022-08-11T19:22:42;22.90;41.40
1277;DHT22;631;51.024;13.826;2022-08-11T19:25:30;22.80;41.40
1277;DHT22;631;51.024;13.826;2022-08-11T19:28:16;22.70;42.40
1277;DHT22;631;51.024;13.826;2022-08-11T19:31:00;22.60;45.50
1277;DHT22;631;51.024;13.826;2022-08-11T19:33:46;22.50;44.90
1277;DHT22;631;51.024;13.826;2022-08-11T19:36:31;22.30;46.30
1277;DHT22;631;51.024;13.826;2022-08-11T19:39:17;22.20;47.90
1277;DHT22;631;51.024;13.826;2022-08-11T19:42:02;22.10;48.90
1277;DHT22;631;51.024;13.826;2022-08-11T19:44:47;22.00;49.20
1277;DHT22;631;51.024;13.826;2022-08-11T19:47:32;21.90;50.30
1277;DHT22;631;51.024;13.826;2022-08-11T19:50:18;21.80;53.50
1277;DHT22;631;51.024;13.826;2022-08-11T19:53:03;21.70;53.20
1277;DHT22;631;51.024;13.826;2022-08-11T19:55:50;21.60;54.60
1277;DHT22;631;51.024;13.826;2022-08-11T19:58:35;21.50;55.60
1277;DHT22;631;51.024;13.826;2022-08-11T20:01:20;21.50;58.00
1277;DHT22;631;51.024;13.826;2022-08-11T20:04:05;21.40;59.00
1277;DHT22;631;51.024;13.826;2022-08-11T20:06:50;21.40;59.50
1277;DHT22;631;51.024;13.826;2022-08-11T20:09:37;21.30;61.90
1277;DHT22;631;51.024;13.826;2022-08-11T20:12:22;21.20;61.80
1277;DHT22;631;51.024;13.826;2022-08-11T20:15:08;21.10;64.60
1277;DHT22;631;51.024;13.826;2022-08-11T20:17:53;21.00;66.00
1277;DHT22;631;51.024;13.826;2022-08-11T20:20:39;21.00;68.40
1277;DHT22;631;51.024;13.826;2022-08-11T20:23:24;20.90;70.80
1277;DHT22;631;51.024;13.826;2022-08-11T20:26:09;20.80;70.80
1277;DHT22;631;51.024;13.826;2022-08-11T20:28:54;20.70;70.50
1277;DHT22;631;51.024;13.826;2022-08-11T20:31:40;20.70;71.30
1277;DHT22;631;51.024;13.826;2022-08-11T20:34:25;20.60;73.20
1277;DHT22;631;51.024;13.826;2022-08-11T20:37:10;20.60;76.50
1277;DHT22;631;51.024;13.826;2022-08-11T20:39:55;20.50;77.10
1277;DHT22;631;51.024;13.826;2022-08-11T20:42:41;20.50;79.30
1277;DHT22;631;51.024;13.826;2022-08-11T20:45:26;20.40;79.80
1277;DHT22;631;51.024;13.826;2022-08-11T20:48:11;20.30;81.90
1277;DHT22;631;51.024;13.826;2022-08-11T20:50:57;20.20;84.90
1277;DHT22;631;51.024;13.826;2022-08-11T20:53:44;20.20;85.30
1277;DHT22;631;51.024;13.826;2022-08-11T20:56:30;20.20;84.60
1277;DHT22;631;51.024;13.826;2022-08-11T20:59:17;20.20;86.60
1277;DHT22;631;51.024;13.826;2022-08-11T21:02:06;20.10;90.20
1277;DHT22;631;51.024;13.826;2022-08-11T21:04:52;20.00;91.00
1277;DHT22;631;51.024;13.826;2022-08-11T21:07:40;19.90;92.40
1277;DHT22;631;51.024;13.826;2022-08-11T21:10:31;19.90;92.30
1277;DHT22;631;51.024;13.826;2022-08-11T21:13:16;19.80;94.20
1277;DHT22;631;51.024;13.826;2022-08-11T21:16:03;19.70;95.20
1277;DHT22;631;51.024;13.826;2022-08-11T21:18:49;19.70;96.50
1277;DHT22;631;51.024;13.826;2022-08-11T21:21:35;19.60;98.50
1277;DHT22;631;51.024;13.826;2022-08-11T21:24:22;19.50;99.90
1277;DHT22;631;51.024;13.826;2022-08-11T21:27:09;19.40;99.90
1277;DHT22;631;51.024;13.826;2022-08-11T21:29:56;19.40;99.90
1277;DHT22;631;51.024;13.826;2022-08-11T21:32:42;19.30;99.90
1277;DHT22;631;51.024;13.826;2022-08-11T21:35:28;19.30;99.90
1277;DHT22;631;51.024;13.826;2022-08-11T21:38:14;19.30;99.90
1277;DHT22;631;51.024;13.826;2022-08-11T21:40:59;19.20;99.90
1277;DHT22;631;51.024;13.826;2022-08-11T21:43:48;19.20;99.90
1277;DHT22;631;51.024;13.826;2022-08-11T21:46:34;19.10;99.90
1277;DHT22;631;51.024;13.826;2022-08-11T21:49:19;19.10;99.90
1277;DHT22;631;51.024;13.826;2022-08-11T21:52:05;19.10;99.90
1277;DHT22;631;51.024;13.826;2022-08-11T21:54:49;19.00;99.90
1277;DHT22;631;51.024;13.826;2022-08-11T21:57:35;18.90;99.90
1277;DHT22;631;51.024;13.826;2022-08-11T22:00:20;18.90;99.90
1277;DHT22;631;51.024;13.826;2022-08-11T22:03:05;18.90;99.90
1277;DHT22;631;51.024;13.826;2022-08-11T22:05:50;18.80;99.90
1277;DHT22;631;51.024;13.826;2022-08-11T22:08:35;18.90;99.90
1277;DHT22;631;51.024;13.826;2022-08-11T22:11:19;18.70;99.90
1277;DHT22;631;51.024;13.826;2022-08-11T22:14:03;18.60;99.90
1277;DHT22;631;51.024;13.826;2022-08-11T22:16:48;18.50;99.90
1277;DHT22;631;51.024;13.826;2022-08-11T22:19:35;18.40;99.90
1277;DHT22;631;51.024;13.826;2022-08-11T22:22:20;18.40;99.90
1277;DHT22;631;51.024;13.826;2022-08-11T22:25:04;18.30;99.90
1277;DHT22;631;51.024;13.826;2022-08-11T22:27:49;18.20;99.90
1277;DHT22;631;51.024;13.826;2022-08-11T22:30:33;18.20;99.90
1277;DHT22;631;51.024;13.826;2022-08-11T22:33:19;18.10;99.90
1277;DHT22;631;51.024;13.826;2022-08-11T22:36:03;18.20;99.90
1277;DHT22;631;51.024;13.826;2022-08-11T22:38:48;18.10;99.90
1277;DHT22;631;51.024;13.826;2022-08-11T22:41:33;18.10;99.90
1277;DHT22;631;51.024;13.826;2022-08-11T22:44:17;18.00;99.90
1277;DHT22;631;51.024;13.826;2022-08-11T22:47:02;17.90;99.90
1277;DHT22;631;51.024;13.826;2022-08-11T22:49:52;17.80;99.90
1277;DHT22;631;51.024;13.826;2022-08-11T22:52:40;17.70;99.90